VLG66WM LEPA-LEMH
Flight info
| Callsign | VLG66WM |
|---|---|
| Flight time | 0h 19m |
| Altitude | 12000 |
| Route | CDP |
| Aircraft | A320/M-SDE3FGHIRWY/LB1 |
Departure
| Time | 2026-05-07 21:13 |
|---|---|
| Airport | Palma de Mallorca Airport (LEPA) |
Arrival
| Time | 2026-05-07 21:33 |
|---|---|
| Airport | Menorca Airport (LEMH) |
| Time | Latitude | Longitude | Altitude | Speed | Heading |
|---|---|---|---|---|---|
| 2026-05-07 21:00 | 39.54472 | 2.73133 | 39 ft | 0 kts | 344° |
| 2026-05-07 21:07 | 39.54457 | 2.73139 | 15 ft | 3 kts | 327° |
| 2026-05-07 21:07 | 39.54443 | 2.73156 | 39 ft | 3 kts | 295° |
| 2026-05-07 21:07 | 39.54438 | 2.73179 | 38 ft | 3 kts | 269° |
| 2026-05-07 21:08 | 39.54441 | 2.73204 | 37 ft | 3 kts | 247° |
| 2026-05-07 21:08 | 39.54445 | 2.73216 | 38 ft | 0 kts | 239° |
| 2026-05-07 21:11 | 39.54432 | 2.73209 | 38 ft | 4 kts | 178° |
| 2026-05-07 21:11 | 39.54316 | 2.73165 | 38 ft | 13 kts | 190° |
| 2026-05-07 21:12 | 39.54269 | 2.73251 | 38 ft | 15 kts | 92° |
| 2026-05-07 21:12 | 39.54267 | 2.73412 | 38 ft | 21 kts | 90° |
| 2026-05-07 21:12 | 39.54305 | 2.73560 | 38 ft | 17 kts | 57° |
| 2026-05-07 21:12 | 39.54384 | 2.73718 | 38 ft | 32 kts | 57° |
| 2026-05-07 21:13 | 39.54632 | 2.74228 | 38 ft | 99 kts | 58° |
| 2026-05-07 21:13 | 39.55088 | 2.75194 | 40 ft | 149 kts | 58° |
| 2026-05-07 21:13 | 39.55632 | 2.76358 | 603 ft | 149 kts | 62° |
| 2026-05-07 21:13 | 39.55904 | 2.77660 | 1235 ft | 151 kts | 76° |
| 2026-05-07 21:14 | 39.56147 | 2.79060 | 1643 ft | 170 kts | 75° |
| 2026-05-07 21:14 | 39.56429 | 2.80651 | 1938 ft | 192 kts | 76° |
| 2026-05-07 21:14 | 39.56544 | 2.82451 | 2359 ft | 207 kts | 92° |
| 2026-05-07 21:14 | 39.56467 | 2.84336 | 3074 ft | 210 kts | 91° |
| 2026-05-07 21:15 | 39.56404 | 2.86226 | 3836 ft | 212 kts | 91° |
| 2026-05-07 21:15 | 39.56345 | 2.88159 | 4613 ft | 216 kts | 91° |
| 2026-05-07 21:15 | 39.56289 | 2.90122 | 5430 ft | 219 kts | 91° |
| 2026-05-07 21:15 | 39.56238 | 2.92116 | 6150 ft | 227 kts | 88° |
| 2026-05-07 21:16 | 39.56511 | 2.94140 | 6870 ft | 234 kts | 71° |
| 2026-05-07 21:16 | 39.57062 | 2.96237 | 7289 ft | 258 kts | 70° |
| 2026-05-07 21:16 | 39.57676 | 2.98489 | 7920 ft | 269 kts | 70° |
| 2026-05-07 21:16 | 39.58310 | 3.00801 | 8766 ft | 274 kts | 70° |
| 2026-05-07 21:17 | 39.58954 | 3.03154 | 9589 ft | 279 kts | 71° |
| 2026-05-07 21:17 | 39.59607 | 3.05555 | 10264 ft | 289 kts | 72° |
| 2026-05-07 21:17 | 39.60291 | 3.08087 | 10499 ft | 312 kts | 72° |
| 2026-05-07 21:17 | 39.61026 | 3.10833 | 10755 ft | 331 kts | 72° |
| 2026-05-07 21:18 | 39.61793 | 3.13693 | 11314 ft | 339 kts | 73° |
| 2026-05-07 21:18 | 39.62586 | 3.16639 | 11837 ft | 344 kts | 72° |
| 2026-05-07 21:18 | 39.63367 | 3.19536 | 11977 ft | 347 kts | 72° |
| 2026-05-07 21:18 | 39.64188 | 3.22585 | 12002 ft | 366 kts | 72° |
| 2026-05-07 21:19 | 39.65033 | 3.25726 | 11999 ft | 370 kts | 72° |
| 2026-05-07 21:19 | 39.65886 | 3.28893 | 12001 ft | 372 kts | 72° |
| 2026-05-07 21:19 | 39.66727 | 3.32022 | 11812 ft | 360 kts | 72° |
| 2026-05-07 21:19 | 39.67533 | 3.35033 | 11563 ft | 346 kts | 73° |
| 2026-05-07 21:20 | 39.68307 | 3.37936 | 11309 ft | 335 kts | 72° |
| 2026-05-07 21:20 | 39.69062 | 3.40769 | 11056 ft | 330 kts | 72° |
| 2026-05-07 21:20 | 39.69807 | 3.43580 | 10817 ft | 329 kts | 74° |
| 2026-05-07 21:20 | 39.70486 | 3.46401 | 10570 ft | 326 kts | 75° |
| 2026-05-07 21:21 | 39.71101 | 3.49231 | 10333 ft | 325 kts | 76° |
| 2026-05-07 21:21 | 39.71689 | 3.52064 | 10089 ft | 324 kts | 77° |
| 2026-05-07 21:21 | 39.72268 | 3.54862 | 9897 ft | 316 kts | 77° |
| 2026-05-07 21:21 | 39.72833 | 3.57559 | 9765 ft | 304 kts | 76° |
| 2026-05-07 21:22 | 39.73381 | 3.60157 | 9626 ft | 293 kts | 76° |
| 2026-05-07 21:22 | 39.73915 | 3.62672 | 9501 ft | 284 kts | 76° |
| 2026-05-07 21:22 | 39.74438 | 3.65137 | 9366 ft | 283 kts | 77° |
| 2026-05-07 21:22 | 39.74962 | 3.67593 | 9228 ft | 282 kts | 77° |
| 2026-05-07 21:23 | 39.75487 | 3.70052 | 9108 ft | 283 kts | 77° |
| 2026-05-07 21:23 | 39.76013 | 3.72514 | 8963 ft | 283 kts | 75° |
| 2026-05-07 21:23 | 39.76536 | 3.74972 | 8835 ft | 282 kts | 76° |
| 2026-05-07 21:23 | 39.77058 | 3.77423 | 8706 ft | 281 kts | 76° |
| 2026-05-07 21:24 | 39.77579 | 3.79871 | 8574 ft | 282 kts | 77° |
| 2026-05-07 21:24 | 39.78099 | 3.82326 | 8448 ft | 281 kts | 77° |
| 2026-05-07 21:24 | 39.78611 | 3.84762 | 8323 ft | 280 kts | 77° |
| 2026-05-07 21:24 | 39.79123 | 3.87204 | 8191 ft | 280 kts | 76° |
| 2026-05-07 21:25 | 39.79617 | 3.89653 | 8065 ft | 278 kts | 82° |
| 2026-05-07 21:25 | 39.79584 | 3.92120 | 7938 ft | 273 kts | 105° |
| 2026-05-07 21:25 | 39.78798 | 3.94323 | 7807 ft | 268 kts | 128° |
| 2026-05-07 21:25 | 39.77409 | 3.95917 | 7690 ft | 269 kts | 150° |
| 2026-05-07 21:26 | 39.75754 | 3.97048 | 7554 ft | 269 kts | 150° |
| 2026-05-07 21:26 | 39.74157 | 3.98333 | 7346 ft | 271 kts | 146° |
| 2026-05-07 21:26 | 39.72640 | 3.99800 | 6737 ft | 273 kts | 140° |
| 2026-05-07 21:26 | 39.71226 | 4.01445 | 6054 ft | 273 kts | 135° |
| 2026-05-07 21:27 | 39.69930 | 4.03243 | 5364 ft | 272 kts | 130° |
| 2026-05-07 21:27 | 39.68777 | 4.05140 | 4681 ft | 270 kts | 126° |
| 2026-05-07 21:27 | 39.67750 | 4.07166 | 4024 ft | 267 kts | 120° |
| 2026-05-07 21:27 | 39.66900 | 4.09212 | 3866 ft | 247 kts | 116° |
| 2026-05-07 21:28 | 39.66231 | 4.11166 | 3737 ft | 227 kts | 111° |
| 2026-05-07 21:28 | 39.65704 | 4.13057 | 3497 ft | 220 kts | 108° |
| 2026-05-07 21:28 | 39.65323 | 4.14977 | 3115 ft | 218 kts | 95° |
| 2026-05-07 21:28 | 39.65638 | 4.16855 | 2883 ft | 217 kts | 61° |
| 2026-05-07 21:29 | 39.66298 | 4.17866 | 2853 ft | 219 kts | 40° |
| 2026-05-07 21:29 | 39.67708 | 4.18605 | 2778 ft | 230 kts | 9° |
| 2026-05-07 21:29 | 39.69320 | 4.18650 | 2677 ft | 231 kts | 7° |
| 2026-05-07 21:29 | 39.70917 | 4.18835 | 2568 ft | 231 kts | 9° |
| 2026-05-07 21:30 | 39.72508 | 4.19086 | 2462 ft | 230 kts | 12° |
| 2026-05-07 21:30 | 39.74091 | 4.19344 | 2352 ft | 229 kts | 11° |
| 2026-05-07 21:30 | 39.75650 | 4.19656 | 2164 ft | 221 kts | 13° |
| 2026-05-07 21:30 | 39.77128 | 4.19981 | 1891 ft | 209 kts | 13° |
| 2026-05-07 21:31 | 39.78476 | 4.20261 | 1653 ft | 183 kts | 12° |
| 2026-05-07 21:31 | 39.79678 | 4.20508 | 1395 ft | 167 kts | 13° |
| 2026-05-07 21:31 | 39.80802 | 4.20741 | 1210 ft | 159 kts | 12° |
| 2026-05-07 21:31 | 39.81835 | 4.20953 | 983 ft | 144 kts | 12° |
| 2026-05-07 21:32 | 39.82808 | 4.21154 | 778 ft | 140 kts | 11° |
| 2026-05-07 21:32 | 39.83763 | 4.21351 | 594 ft | 142 kts | 9° |
| 2026-05-07 21:32 | 39.84733 | 4.21546 | 417 ft | 140 kts | 12° |
| 2026-05-07 21:32 | 39.85676 | 4.21741 | 296 ft | 127 kts | 12° |
| 2026-05-07 21:33 | 39.86250 | 4.21875 | 302 ft | 45 kts | 9° |
| 2026-05-07 21:33 | 39.86429 | 4.21917 | 304 ft | 28 kts | 11° |
| 2026-05-07 21:33 | 39.86576 | 4.21976 | 301 ft | 10 kts | 73° |
| 2026-05-07 21:33 | 39.86557 | 4.22103 | 296 ft | 18 kts | 99° |
| 2026-05-07 21:34 | 39.86539 | 4.22267 | 293 ft | 14 kts | 103° |
| 2026-05-07 21:34 | 39.86455 | 4.22316 | 288 ft | 14 kts | 181° |
| 2026-05-07 21:34 | 39.86425 | 4.22397 | 289 ft | 0 kts | 99° |